createdAt,value
2018-03-25T00:01:08.000Z,31.62
2018-03-25T00:03:36.119Z,31.75
2018-03-25T00:06:04.338Z,30.85
2018-03-25T00:08:32.460Z,31.48
2018-03-25T00:11:00.576Z,31.60
2018-03-25T00:13:29.447Z,31.48
2018-03-25T00:15:57.571Z,31.40
2018-03-25T00:18:25.684Z,31.48
2018-03-25T00:20:53.888Z,32.75
2018-03-25T00:23:22.016Z,30.75
2018-03-25T00:25:50.133Z,32.72
2018-03-25T00:28:18.240Z,32.30
2018-03-25T00:30:46.374Z,32.70
2018-03-25T00:33:15.285Z,33.20
2018-03-25T00:35:44.139Z,31.23
2018-03-25T00:38:13.036Z,33.10
2018-03-25T00:40:41.931Z,31.50
2018-03-25T00:43:10.823Z,33.60
2018-03-25T00:45:39.695Z,31.27
2018-03-25T00:48:07.917Z,33.45
2018-03-25T00:50:36.030Z,32.70
2018-03-25T00:53:04.157Z,32.13
2018-03-25T00:55:32.267Z,33.28
2018-03-25T00:58:00.375Z,33.67
2018-03-25T01:00:29.275Z,33.75
2018-03-25T01:02:57.391Z,33.10
2018-03-25T01:05:25.515Z,34.60
2018-03-25T01:07:54.447Z,34.15
2018-03-25T01:10:22.552Z,32.55
2018-03-25T01:12:52.191Z,35.05
2018-03-25T01:15:20.295Z,33.50
2018-03-25T01:17:48.404Z,33.25
2018-03-25T01:20:16.559Z,33.10
2018-03-25T01:22:44.785Z,34.17
2018-03-25T01:25:12.883Z,34.30
2018-03-25T01:27:40.989Z,34.58
2018-03-25T01:30:09.131Z,33.80
2018-03-25T01:32:37.363Z,34.00
2018-03-25T01:35:05.439Z,34.22
2018-03-25T01:37:34.315Z,32.90
2018-03-25T01:40:03.203Z,33.83
2018-03-25T01:42:32.091Z,34.38
2018-03-25T01:45:01.000Z,32.17
2018-03-25T01:47:29.171Z,33.55
2018-03-25T01:49:58.070Z,34.15
2018-03-25T01:52:26.209Z,33.95
2018-03-25T01:54:54.333Z,36.45
2018-03-25T01:57:22.438Z,36.80
2018-03-25T01:59:50.601Z,35.00
2018-03-25T02:02:18.715Z,35.08
2018-03-25T02:04:47.585Z,35.83
2018-03-25T02:07:16.464Z,35.08
2018-03-25T02:09:44.621Z,34.25
2018-03-25T02:12:12.748Z,35.13
2018-03-25T02:14:41.625Z,35.17
2018-03-25T02:17:10.500Z,36.47
2018-03-25T02:19:38.639Z,35.75
2018-03-25T02:22:06.765Z,34.97
2018-03-25T02:24:35.657Z,34.33
2018-03-25T02:27:03.753Z,33.35
2018-03-25T02:29:31.872Z,36.65
2018-03-25T02:32:00.008Z,36.22
2018-03-25T02:34:28.126Z,37.83
2018-03-25T02:36:56.235Z,35.25
2018-03-25T02:39:24.359Z,34.65
2018-03-25T02:41:52.471Z,36.60
2018-03-25T02:44:20.615Z,36.85
2018-03-25T02:46:48.739Z,35.22
2018-03-25T02:49:16.880Z,35.25
2018-03-25T02:51:45.798Z,37.83
2018-03-25T02:54:13.971Z,36.15
2018-03-25T02:56:42.123Z,34.88
2018-03-25T02:59:10.236Z,37.00
2018-03-25T03:01:38.359Z,34.85
2018-03-25T03:04:07.280Z,36.45
2018-03-25T03:06:35.388Z,37.22
2018-03-25T03:09:03.488Z,38.50
2018-03-25T03:11:32.388Z,37.50
2018-03-25T03:14:01.278Z,37.17
2018-03-25T03:16:30.156Z,35.63
2018-03-25T03:18:59.026Z,39.95
2018-03-25T03:21:27.158Z,35.85
2018-03-25T03:23:55.306Z,37.08
2018-03-25T03:26:23.484Z,37.22
2018-03-25T03:28:51.615Z,38.20
2018-03-25T03:31:19.745Z,38.13
2018-03-25T03:33:47.864Z,39.10
2018-03-25T03:36:15.972Z,37.95
2018-03-25T03:38:44.124Z,37.80
2018-03-25T03:41:13.000Z,36.22
2018-03-25T03:43:41.208Z,36.03
2018-03-25T03:46:09.316Z,36.88
2018-03-25T03:48:37.438Z,39.22
2018-03-25T03:51:06.349Z,38.58
2018-03-25T03:53:35.219Z,38.47
2018-03-25T03:56:04.104Z,37.70
2018-03-25T03:58:32.980Z,36.55
2018-03-25T04:01:01.102Z,36.22
2018-03-25T04:03:29.220Z,37.47
2018-03-25T04:05:57.336Z,40.58
2018-03-25T04:08:25.488Z,38.28
2018-03-25T04:10:54.404Z,39.92
2018-03-25T04:13:22.564Z,37.72
2018-03-25T04:15:50.675Z,39.55
2018-03-25T04:18:18.811Z,40.72
2018-03-25T04:20:46.923Z,40.12
2018-03-25T04:23:15.033Z,41.13
2018-03-25T04:25:43.940Z,43.22
2018-03-25T04:28:12.811Z,39.70
2018-03-25T04:30:41.700Z,41.55
2018-03-25T04:33:10.591Z,37.90
2018-03-25T04:35:39.508Z,39.60
2018-03-25T04:38:07.630Z,37.97
2018-03-25T04:40:35.732Z,38.53
2018-03-25T04:43:04.631Z,40.00
2018-03-25T04:45:33.537Z,40.95
2018-03-25T04:48:01.651Z,40.40
2018-03-25T04:50:29.793Z,39.13
2018-03-25T04:52:57.920Z,37.65
2018-03-25T04:55:26.037Z,38.65
2018-03-25T04:57:54.147Z,40.63
2018-03-25T05:00:22.259Z,36.22
2018-03-25T05:02:50.391Z,37.10
2018-03-25T05:05:18.525Z,39.42
2018-03-25T05:07:46.643Z,37.60
2018-03-25T05:10:14.765Z,37.15
2018-03-25T05:12:42.915Z,39.53
2018-03-25T05:15:11.795Z,40.00
2018-03-25T05:17:40.671Z,42.72
2018-03-25T05:20:08.806Z,46.55
2018-03-25T05:22:36.927Z,46.25
2018-03-25T05:25:05.808Z,42.35
2018-03-25T05:27:33.922Z,42.47
2018-03-25T05:30:02.073Z,41.45
2018-03-25T05:32:30.971Z,40.22
2018-03-25T05:34:59.074Z,40.80
2018-03-25T05:37:27.211Z,41.03
2018-03-25T05:39:56.087Z,42.20
2018-03-25T05:42:25.018Z,41.97
2018-03-25T05:44:53.111Z,45.47
2018-03-25T05:47:21.225Z,40.67
2018-03-25T05:49:50.141Z,46.42
2018-03-25T05:52:18.278Z,42.15
2018-03-25T05:54:47.155Z,45.35
2018-03-25T05:57:15.274Z,43.45
2018-03-25T05:59:43.410Z,41.58
2018-03-25T06:02:11.543Z,39.65
2018-03-25T06:04:39.673Z,40.10
2018-03-25T06:07:08.604Z,38.72
2018-03-25T06:09:36.743Z,39.50
2018-03-25T06:12:04.876Z,39.42
2018-03-25T06:14:32.999Z,37.22
2018-03-25T06:17:01.121Z,36.75
2018-03-25T06:19:29.245Z,33.35
2018-03-25T06:21:57.360Z,35.85
2018-03-25T06:24:25.471Z,34.33
2018-03-25T06:26:53.590Z,34.53
2018-03-25T06:29:21.760Z,37.08
2018-03-25T06:31:49.886Z,42.75
2018-03-25T06:34:18.063Z,44.30
2018-03-25T06:36:46.191Z,43.42
2018-03-25T06:39:14.314Z,40.55
2018-03-25T06:41:42.442Z,39.92
2018-03-25T06:44:10.648Z,43.42
2018-03-25T06:46:39.528Z,41.25
2018-03-25T06:49:08.414Z,45.92
2018-03-25T06:51:37.324Z,43.17
2018-03-25T06:54:05.444Z,46.67
2018-03-25T06:56:33.558Z,45.55
2018-03-25T06:59:02.453Z,44.92
2018-03-25T07:01:31.332Z,46.63
2018-03-25T07:04:00.252Z,44.97
2018-03-25T07:06:28.359Z,45.67
2018-03-25T07:08:56.580Z,45.92
2018-03-25T07:11:25.494Z,47.28
2018-03-25T07:13:53.614Z,48.08
2018-03-25T07:16:21.720Z,45.72
2018-03-25T07:18:50.587Z,45.15
2018-03-25T07:21:19.491Z,43.83
2018-03-25T07:23:48.428Z,42.53
2018-03-25T07:26:16.536Z,45.65
2018-03-25T07:28:44.684Z,44.75
2018-03-25T07:31:12.808Z,44.10
2018-03-25T07:33:40.967Z,43.87
2018-03-25T07:36:09.843Z,44.10
2018-03-25T07:38:37.955Z,45.42
2018-03-25T07:41:06.103Z,43.38
2018-03-25T07:43:35.012Z,45.10
2018-03-25T07:46:03.088Z,45.20
2018-03-25T07:48:31.267Z,42.75
2018-03-25T07:50:59.449Z,43.78
2018-03-25T07:53:27.551Z,42.45
2018-03-25T07:55:55.659Z,43.53
2018-03-25T07:58:24.565Z,43.92
2018-03-25T08:00:52.683Z,41.95
2018-03-25T08:03:20.903Z,41.15
2018-03-25T08:05:49.019Z,41.78
2018-03-25T08:08:17.131Z,41.47
2018-03-25T08:10:46.035Z,40.90
2018-03-25T08:13:14.923Z,41.45
2018-03-25T08:15:43.803Z,41.22
2018-03-25T08:18:12.679Z,42.17
2018-03-25T08:20:40.879Z,39.72
2018-03-25T08:23:09.807Z,40.80
2018-03-25T08:25:37.955Z,40.00
2018-03-25T08:28:06.073Z,40.12
2018-03-25T08:30:34.195Z,38.85
2018-03-25T08:33:02.345Z,38.38
2018-03-25T08:35:31.239Z,37.80
2018-03-25T08:38:00.119Z,36.65
2018-03-25T08:40:29.033Z,36.08
2018-03-25T08:42:57.187Z,34.90
2018-03-25T08:45:25.355Z,36.63
2018-03-25T08:47:53.453Z,35.88
2018-03-25T08:50:21.561Z,35.63
2018-03-25T08:52:49.785Z,35.15
2018-03-25T08:55:18.656Z,33.25
2018-03-25T08:57:48.272Z,33.95
2018-03-25T09:00:16.399Z,33.88
2018-03-25T09:02:44.534Z,34.55
2018-03-25T09:05:12.666Z,33.92
2018-03-25T09:07:40.778Z,35.28
2018-03-25T09:10:08.888Z,34.92
2018-03-25T09:12:37.032Z,36.63
2018-03-25T09:15:05.154Z,34.00
2018-03-25T09:17:33.258Z,33.28
2018-03-25T09:20:02.133Z,33.67
2018-03-25T09:22:31.030Z,30.60
2018-03-25T09:24:59.958Z,30.23
2018-03-25T09:27:28.072Z,30.85
2018-03-25T09:29:56.174Z,32.35
2018-03-25T09:32:25.102Z,30.98
2018-03-25T09:34:53.229Z,30.37
2018-03-25T09:37:21.422Z,30.23
2018-03-25T09:39:49.560Z,31.48
2018-03-25T09:42:17.698Z,32.00
2018-03-25T09:44:45.809Z,30.67
2018-03-25T09:47:14.000Z,31.48
2018-03-25T09:49:42.874Z,30.88
2018-03-25T09:52:11.756Z,30.85
2018-03-25T09:54:39.975Z,29.58
2018-03-25T09:57:08.080Z,29.58
2018-03-25T09:59:36.186Z,28.77
2018-03-25T10:02:05.076Z,27.52
2018-03-25T10:04:33.186Z,28.70
2018-03-25T10:07:01.332Z,28.80
2018-03-25T10:09:29.474Z,26.50
2018-03-25T10:11:57.588Z,26.17
2018-03-25T10:14:25.766Z,25.12
2018-03-25T10:16:54.616Z,25.52
2018-03-25T10:19:22.746Z,25.62
2018-03-25T10:21:50.864Z,24.15
2018-03-25T10:24:19.880Z,23.92
2018-03-25T10:26:48.763Z,22.70
2018-03-25T10:29:17.655Z,25.00
2018-03-25T10:31:46.572Z,24.42
2018-03-25T10:34:14.722Z,24.05
2018-03-25T10:36:43.632Z,22.23
2018-03-25T10:39:11.829Z,22.65
2018-03-25T10:41:39.950Z,22.02
2018-03-25T10:44:08.899Z,20.73
2018-03-25T10:46:37.024Z,21.25
2018-03-25T10:49:05.904Z,22.00
2018-03-25T10:51:34.061Z,20.70
2018-03-25T10:54:02.191Z,21.20
2018-03-25T10:56:30.328Z,20.23
2018-03-25T10:58:59.339Z,20.23
2018-03-25T11:01:27.511Z,20.12
2018-03-25T11:03:55.713Z,21.60
2018-03-25T11:06:23.973Z,19.90
2018-03-25T11:08:52.081Z,19.58
2018-03-25T11:11:20.199Z,19.67
2018-03-25T11:13:48.339Z,19.52
2018-03-25T11:16:17.297Z,19.20
2018-03-25T11:18:46.159Z,21.60
2018-03-25T11:21:14.310Z,21.20
2018-03-25T11:23:43.203Z,21.70
2018-03-25T11:26:12.113Z,21.37
2018-03-25T11:28:40.231Z,20.30
2018-03-25T11:31:08.359Z,19.67
2018-03-25T11:33:36.525Z,21.50
2018-03-25T11:36:05.448Z,21.02
2018-03-25T11:38:33.599Z,20.67
2018-03-25T11:41:01.722Z,20.85
2018-03-25T11:43:29.887Z,21.23
2018-03-25T11:45:58.127Z,21.17
2018-03-25T11:48:26.274Z,22.27
2018-03-25T11:50:55.878Z,21.52
2018-03-25T11:53:24.945Z,22.85
2018-03-25T11:55:53.069Z,21.77
2018-03-25T11:58:21.183Z,22.67
2018-03-25T12:00:49.407Z,21.50
2018-03-25T12:03:17.561Z,22.58
2018-03-25T12:05:46.574Z,22.02
2018-03-25T12:08:14.715Z,23.47
2018-03-25T12:10:43.611Z,22.27
2018-03-25T12:13:12.523Z,22.73
2018-03-25T12:15:41.450Z,21.25
2018-03-25T12:18:09.587Z,23.48
2018-03-25T12:20:37.719Z,22.62
2018-03-25T12:23:05.935Z,22.92
2018-03-25T12:25:34.082Z,22.57
2018-03-25T12:28:03.018Z,24.25
2018-03-25T12:30:31.155Z,22.98
2018-03-25T12:32:59.295Z,23.03
2018-03-25T12:35:27.446Z,24.20
2018-03-25T12:37:55.564Z,24.30
2018-03-25T12:40:23.770Z,22.77
2018-03-25T12:42:51.927Z,23.17
2018-03-25T12:45:20.833Z,23.63
2018-03-25T12:47:48.957Z,22.65
2018-03-25T12:50:17.094Z,23.87
2018-03-25T12:52:45.360Z,23.65
2018-03-25T12:55:13.561Z,22.50
2018-03-25T12:57:41.815Z,23.67
2018-03-25T13:00:09.944Z,23.27
2018-03-25T13:02:39.578Z,22.50
2018-03-25T13:05:08.482Z,23.37
2018-03-25T13:07:36.612Z,23.50
2018-03-25T13:10:04.738Z,23.25
2018-03-25T13:12:32.894Z,23.12
2018-03-25T13:15:01.792Z,23.87
2018-03-25T13:17:29.946Z,23.30
2018-03-25T13:19:58.839Z,23.77
2018-03-25T13:22:27.746Z,23.40
2018-03-25T13:24:56.652Z,23.50
2018-03-25T13:27:24.796Z,21.87
2018-03-25T13:29:53.702Z,23.83
2018-03-25T13:32:22.041Z,23.57
2018-03-25T13:34:50.208Z,25.43
2018-03-25T13:37:18.325Z,24.87
2018-03-25T13:39:46.496Z,25.07
2018-03-25T13:42:14.615Z,25.17
2018-03-25T13:44:42.996Z,24.87
2018-03-25T13:47:11.118Z,24.77
2018-03-25T13:49:39.321Z,25.73
2018-03-25T13:52:07.429Z,26.20
2018-03-25T13:54:35.592Z,25.43
2018-03-25T13:57:03.720Z,25.70
2018-03-25T13:59:31.847Z,27.13
2018-03-25T14:01:59.992Z,26.03
2018-03-25T14:04:28.911Z,26.00
2018-03-25T14:06:57.228Z,25.70
2018-03-25T14:09:25.407Z,26.50
2018-03-25T14:11:53.532Z,27.20
2018-03-25T14:14:23.264Z,27.97
2018-03-25T14:16:52.162Z,27.80
2018-03-25T14:19:21.193Z,27.60
2018-03-25T14:21:49.309Z,27.97
2018-03-25T14:24:17.509Z,28.57
2018-03-25T14:26:46.407Z,30.00
2018-03-25T14:29:14.535Z,31.50
2018-03-25T14:31:42.655Z,30.67
2018-03-25T14:34:10.822Z,29.50
2018-03-25T14:36:38.981Z,29.67
2018-03-25T14:39:07.865Z,28.57
2018-03-25T14:41:36.797Z,30.70
2018-03-25T14:44:05.061Z,29.97
2018-03-25T14:46:33.181Z,30.07
2018-03-25T14:49:01.311Z,31.63
2018-03-25T14:51:29.436Z,31.60
2018-03-25T14:53:57.568Z,30.07
2018-03-25T14:56:25.699Z,32.10
2018-03-25T14:58:54.727Z,31.47
2018-03-25T15:01:22.885Z,32.17
2018-03-25T15:03:51.055Z,35.00
2018-03-25T15:06:19.923Z,34.07
2018-03-25T15:08:48.840Z,35.67
2018-03-25T15:11:17.717Z,34.50
2018-03-25T15:13:46.623Z,35.90
2018-03-25T15:16:14.776Z,34.77
2018-03-25T15:18:43.682Z,38.60
2018-03-25T15:21:11.813Z,37.80
2018-03-25T15:23:39.925Z,36.87
2018-03-25T15:26:08.806Z,37.57
2018-03-25T15:28:37.719Z,37.67
2018-03-25T15:31:05.855Z,37.97
2018-03-25T15:33:33.987Z,37.43
2018-03-25T15:36:02.137Z,38.10
2018-03-25T15:38:30.410Z,36.83
2018-03-25T15:40:58.550Z,38.53
2018-03-25T15:43:26.668Z,37.77
2018-03-25T15:45:54.808Z,38.90
2018-03-25T15:48:23.850Z,37.93
2018-03-25T15:50:51.956Z,38.90
2018-03-25T15:53:20.160Z,38.50
2018-03-25T15:55:49.182Z,38.40
2018-03-25T15:58:17.356Z,37.87
2018-03-25T16:00:45.530Z,38.13
2018-03-25T16:03:13.667Z,38.30
2018-03-25T16:05:42.552Z,39.63
2018-03-25T16:08:11.444Z,37.30
2018-03-25T16:10:40.393Z,37.77
2018-03-25T16:13:08.515Z,38.13
2018-03-25T16:15:36.651Z,37.93
2018-03-25T16:18:04.800Z,38.07
2018-03-25T16:20:32.952Z,38.53
2018-03-25T16:23:01.069Z,37.50
2018-03-25T16:25:29.202Z,37.63
2018-03-25T16:27:57.365Z,36.10
2018-03-25T16:30:25.486Z,37.23
2018-03-25T16:32:53.706Z,36.97
2018-03-25T16:35:21.864Z,38.80
2018-03-25T16:37:50.788Z,38.43
2018-03-25T16:40:18.900Z,38.93
2018-03-25T16:42:47.786Z,38.53
2018-03-25T16:45:16.002Z,37.27
2018-03-25T16:47:44.197Z,38.50
2018-03-25T16:50:12.332Z,39.47
2018-03-25T16:52:41.229Z,39.90
2018-03-25T16:55:09.381Z,38.93
2018-03-25T16:57:37.462Z,41.40
2018-03-25T17:00:05.608Z,39.40
2018-03-25T17:02:33.726Z,38.03
2018-03-25T17:05:02.625Z,38.23
2018-03-25T17:07:31.548Z,41.17
2018-03-25T17:09:59.679Z,39.10
2018-03-25T17:12:28.609Z,41.10
2018-03-25T17:14:56.756Z,39.73
2018-03-25T17:17:25.016Z,39.60
2018-03-25T17:19:54.022Z,40.10
2018-03-25T17:22:22.183Z,40.47
2018-03-25T17:24:51.110Z,40.53
2018-03-25T17:27:19.360Z,39.13
2018-03-25T17:29:47.508Z,41.07
2018-03-25T17:32:15.702Z,40.33
2018-03-25T17:34:43.836Z,40.55
2018-03-25T17:37:11.980Z,39.67
2018-03-25T17:39:40.141Z,37.77
2018-03-25T17:42:09.026Z,40.17
2018-03-25T17:44:37.891Z,39.33
2018-03-25T17:47:07.080Z,38.50
2018-03-25T17:49:35.448Z,37.40
2018-03-25T17:52:05.072Z,39.17
2018-03-25T17:54:34.012Z,38.22
2018-03-25T17:57:02.132Z,37.28
2018-03-25T17:59:31.129Z,38.75
2018-03-25T18:02:00.016Z,36.83
2018-03-25T18:04:28.932Z,39.40
2018-03-25T18:06:57.124Z,38.28
2018-03-25T18:09:25.281Z,36.38
2018-03-25T18:11:53.424Z,37.80
2018-03-25T18:14:23.096Z,39.60
2018-03-25T18:16:51.225Z,39.45
2018-03-25T18:19:20.211Z,37.53
2018-03-25T18:21:48.285Z,38.92
2018-03-25T18:24:17.216Z,37.92
2018-03-25T18:26:45.368Z,39.05
2018-03-25T18:29:14.279Z,38.00
2018-03-25T18:31:42.407Z,37.25
2018-03-25T18:34:11.312Z,34.50
2018-03-25T18:36:39.447Z,37.35
2018-03-25T18:39:07.664Z,36.63
2018-03-25T18:41:35.836Z,35.35
2018-03-25T18:44:03.964Z,36.10
2018-03-25T18:46:32.175Z,35.38
2018-03-25T18:49:01.179Z,36.60
2018-03-25T18:51:29.305Z,33.90
2018-03-25T18:53:57.427Z,35.58
2018-03-25T18:56:25.578Z,34.05
2018-03-25T18:58:54.466Z,32.80
2018-03-25T19:01:23.406Z,33.65
2018-03-25T19:03:51.508Z,32.58
2018-03-25T19:06:19.643Z,32.40
2018-03-25T19:08:47.823Z,32.00
2018-03-25T19:11:15.941Z,32.17
2018-03-25T19:13:45.645Z,31.27
2018-03-25T19:16:14.563Z,31.77
2018-03-25T19:18:43.453Z,31.92
2018-03-25T19:21:12.479Z,30.95
2018-03-25T19:23:40.639Z,31.70
2018-03-25T19:26:08.803Z,31.20
2018-03-25T19:28:36.975Z,31.45
2018-03-25T19:31:05.148Z,31.20
2018-03-25T19:33:34.023Z,31.02
2018-03-25T19:36:02.955Z,31.30
2018-03-25T19:38:31.127Z,32.20
2018-03-25T19:40:59.253Z,31.92
2018-03-25T19:43:28.172Z,31.20
2018-03-25T19:45:56.332Z,31.05
2018-03-25T19:48:25.223Z,32.05
2018-03-25T19:50:53.383Z,32.45
2018-03-25T19:53:22.279Z,30.92
2018-03-25T19:55:51.169Z,33.08
2018-03-25T19:58:20.076Z,32.38
2018-03-25T20:00:48.262Z,32.33
2018-03-25T20:03:16.371Z,33.33
2018-03-25T20:05:44.487Z,32.28
2018-03-25T20:08:12.631Z,34.17
2018-03-25T20:10:42.267Z,34.72
2018-03-25T20:13:11.150Z,35.30
2018-03-25T20:15:40.034Z,35.42
2018-03-25T20:18:08.956Z,36.97
2018-03-25T20:20:37.112Z,37.58
2018-03-25T20:23:05.995Z,35.75
2018-03-25T20:25:34.890Z,34.88
2018-03-25T20:28:03.944Z,37.95
2018-03-25T20:30:32.075Z,37.88
2018-03-25T20:33:00.190Z,39.55
2018-03-25T20:35:28.412Z,39.33
2018-03-25T20:37:56.585Z,39.28
2018-03-25T20:40:24.725Z,40.80
2018-03-25T20:42:52.930Z,41.03
2018-03-25T20:45:21.110Z,40.38
2018-03-25T20:47:49.245Z,38.90
2018-03-25T20:50:18.993Z,41.00
2018-03-25T20:52:47.184Z,40.17
2018-03-25T20:55:15.283Z,40.53
2018-03-25T20:57:43.392Z,40.80
2018-03-25T21:00:12.296Z,39.05
2018-03-25T21:02:40.479Z,41.35
2018-03-25T21:05:08.548Z,40.55
2018-03-25T21:07:36.667Z,40.28
2018-03-25T21:10:04.794Z,41.05
2018-03-25T21:12:32.950Z,38.10
2018-03-25T21:15:01.836Z,40.88
2018-03-25T21:17:30.715Z,38.88
2018-03-25T21:19:59.620Z,40.08
2018-03-25T21:22:28.508Z,38.20
2018-03-25T21:24:57.392Z,39.42
2018-03-25T21:27:25.524Z,39.00
2018-03-25T21:29:53.644Z,40.42
2018-03-25T21:32:22.655Z,37.92
2018-03-25T21:34:50.836Z,39.55
2018-03-25T21:37:18.957Z,39.25
2018-03-25T21:39:47.098Z,38.67
2018-03-25T21:42:15.363Z,38.63
2018-03-25T21:44:43.537Z,37.97
2018-03-25T21:47:11.696Z,37.33
2018-03-25T21:49:39.832Z,35.92
2018-03-25T21:52:08.767Z,35.65
2018-03-25T21:54:36.891Z,37.20
2018-03-25T21:57:05.109Z,35.33
2018-03-25T21:59:33.235Z,36.40
2018-03-25T22:02:01.462Z,34.55
2018-03-25T22:04:30.011Z,34.97
2018-03-25T22:06:58.233Z,35.13
2018-03-25T22:09:26.362Z,34.95
2018-03-25T22:11:55.255Z,34.00
2018-03-25T22:14:24.160Z,35.50
2018-03-25T22:16:53.053Z,32.55
2018-03-25T22:19:21.203Z,33.38
2018-03-25T22:21:50.110Z,32.03
2018-03-25T22:24:19.019Z,33.30
2018-03-25T22:26:47.187Z,33.75
2018-03-25T22:29:15.317Z,32.00
2018-03-25T22:31:43.526Z,31.67
2018-03-25T22:34:11.648Z,31.67
2018-03-25T22:36:39.884Z,31.23
2018-03-25T22:39:08.017Z,32.63
2018-03-25T22:41:36.139Z,31.00
2018-03-25T22:44:04.264Z,30.58
2018-03-25T22:46:33.168Z,30.70
2018-03-25T22:49:02.077Z,30.10
2018-03-25T22:51:30.229Z,31.12
2018-03-25T22:53:59.137Z,29.27
2018-03-25T22:56:27.309Z,30.00
2018-03-25T22:58:55.446Z,31.08
2018-03-25T23:01:24.376Z,30.70
2018-03-25T23:03:52.540Z,29.30
2018-03-25T23:06:21.420Z,28.87
2018-03-25T23:08:50.349Z,29.75
2018-03-25T23:11:18.484Z,28.50
2018-03-25T23:13:47.418Z,29.12
2018-03-25T23:16:15.544Z,28.30
2018-03-25T23:18:43.664Z,28.20
2018-03-25T23:21:11.812Z,27.52
2018-03-25T23:23:40.734Z,28.17
2018-03-25T23:26:08.851Z,28.42
2018-03-25T23:28:37.820Z,28.23
2018-03-25T23:31:06.033Z,28.25
2018-03-25T23:33:34.944Z,28.27
2018-03-25T23:36:03.050Z,27.83
2018-03-25T23:38:31.168Z,28.92
2018-03-25T23:41:00.068Z,27.83
2018-03-25T23:43:28.212Z,26.67
2018-03-25T23:45:56.308Z,28.15
2018-03-25T23:48:24.416Z,27.27
2018-03-25T23:50:52.637Z,26.37
2018-03-25T23:53:22.364Z,26.87
2018-03-25T23:55:51.246Z,26.95
2018-03-25T23:58:20.118Z,26.65
